createdAt,value
2018-03-16T00:02:24.252Z,20.90
2018-03-16T00:04:50.463Z,23.53
2018-03-16T00:07:17.390Z,25.00
2018-03-16T00:09:44.321Z,24.17
2018-03-16T00:12:12.284Z,25.57
2018-03-16T00:14:38.449Z,25.23
2018-03-16T00:17:04.529Z,27.80
2018-03-16T00:19:30.775Z,23.50
2018-03-16T00:21:57.033Z,21.63
2018-03-16T00:24:23.124Z,22.70
2018-03-16T00:26:49.329Z,23.03
2018-03-16T00:29:15.496Z,25.10
2018-03-16T00:31:42.506Z,22.10
2018-03-16T00:34:08.755Z,22.23
2018-03-16T00:36:35.084Z,22.60
2018-03-16T00:39:01.624Z,25.30
2018-03-16T00:41:27.836Z,24.20
2018-03-16T00:43:54.042Z,24.73
2018-03-16T00:46:20.194Z,26.10
2018-03-16T00:48:46.399Z,26.07
2018-03-16T00:51:12.448Z,24.77
2018-03-16T00:53:38.668Z,22.10
2018-03-16T00:56:05.202Z,25.43
2018-03-16T00:58:31.346Z,26.83
2018-03-16T01:01:00.646Z,26.87
2018-03-16T01:03:26.801Z,23.80
2018-03-16T01:05:52.964Z,29.20
2018-03-16T01:08:19.012Z,32.33
2018-03-16T01:10:45.970Z,30.90
2018-03-16T01:13:12.797Z,32.57
2018-03-16T01:15:39.743Z,31.00
2018-03-16T01:18:05.925Z,30.50
2018-03-16T01:20:39.062Z,32.30
2018-03-16T01:23:06.211Z,35.13
2018-03-16T01:25:32.339Z,29.70
2018-03-16T01:27:58.876Z,29.00
2018-03-16T01:30:24.999Z,32.83
2018-03-16T01:32:51.070Z,30.50
2018-03-16T01:35:17.265Z,33.87
2018-03-16T01:37:43.369Z,31.50
2018-03-16T01:40:09.474Z,39.30
2018-03-16T01:42:35.945Z,31.37
2018-03-16T01:45:03.780Z,32.10
2018-03-16T01:47:29.910Z,30.23
2018-03-16T01:49:56.449Z,29.13
2018-03-16T01:52:22.537Z,32.13
2018-03-16T01:54:48.797Z,34.40
2018-03-16T01:57:14.950Z,33.00
2018-03-16T01:59:42.227Z,33.37
2018-03-16T02:02:09.061Z,33.67
2018-03-16T02:04:35.962Z,31.33
2018-03-16T02:07:02.095Z,37.90
2018-03-16T02:09:28.760Z,37.53
2018-03-16T02:11:55.316Z,35.63
2018-03-16T02:14:21.493Z,39.97
2018-03-16T02:16:47.724Z,37.43
2018-03-16T02:19:14.826Z,39.10
2018-03-16T02:21:41.138Z,38.43
2018-03-16T02:24:07.255Z,33.80
2018-03-16T02:26:35.953Z,30.57
2018-03-16T02:29:02.672Z,33.63
2018-03-16T02:31:28.997Z,32.03
2018-03-16T02:33:55.247Z,28.87
2018-03-16T02:36:23.128Z,28.93
2018-03-16T02:38:49.335Z,31.90
2018-03-16T02:41:15.462Z,32.03
2018-03-16T02:43:42.603Z,32.27
2018-03-16T02:46:08.711Z,30.93
2018-03-16T02:48:34.841Z,31.83
2018-03-16T02:51:01.203Z,34.13
2018-03-16T02:53:27.710Z,29.10
2018-03-16T02:55:53.984Z,32.57
2018-03-16T02:58:20.881Z,29.60
2018-03-16T03:00:46.959Z,31.40
2018-03-16T03:03:13.041Z,31.80
2018-03-16T03:05:39.231Z,31.80
2018-03-16T03:08:06.260Z,34.17
2018-03-16T03:10:32.368Z,33.03
2018-03-16T03:12:58.630Z,33.63
2018-03-16T03:15:25.312Z,38.60
2018-03-16T03:17:51.479Z,38.27
2018-03-16T03:20:17.580Z,33.63
2018-03-16T03:22:43.774Z,32.77
2018-03-16T03:25:09.904Z,38.67
2018-03-16T03:27:36.067Z,38.17
2018-03-16T03:30:02.245Z,37.93
2018-03-16T03:32:28.521Z,36.33
2018-03-16T03:34:54.736Z,43.33
2018-03-16T03:37:22.442Z,43.10
2018-03-16T03:39:48.604Z,42.47
2018-03-16T03:42:14.745Z,42.10
2018-03-16T03:44:41.597Z,45.00
2018-03-16T03:47:07.655Z,45.97
2018-03-16T03:49:34.078Z,41.63
2018-03-16T03:52:00.247Z,42.13
2018-03-16T03:54:26.858Z,49.70
2018-03-16T03:56:52.918Z,40.70
2018-03-16T03:59:19.077Z,41.30
2018-03-16T04:01:46.306Z,39.57
2018-03-16T04:04:13.161Z,38.50
2018-03-16T04:06:39.289Z,42.73
2018-03-16T04:09:05.478Z,46.03
2018-03-16T04:11:31.537Z,35.93
2018-03-16T04:13:58.526Z,43.83
2018-03-16T04:16:24.663Z,42.23
2018-03-16T04:18:51.180Z,45.63
2018-03-16T04:21:17.310Z,40.57
2018-03-16T04:23:43.660Z,41.87
2018-03-16T04:26:10.031Z,43.47
2018-03-16T04:28:36.109Z,39.80
2018-03-16T04:31:02.328Z,41.37
2018-03-16T04:33:29.311Z,40.90
2018-03-16T04:35:55.717Z,39.33
2018-03-16T04:38:21.822Z,42.30
2018-03-16T04:40:47.866Z,47.03
2018-03-16T04:43:14.688Z,37.53
2018-03-16T04:45:40.866Z,40.63
2018-03-16T04:48:07.014Z,38.40
2018-03-16T04:50:33.119Z,39.57
2018-03-16T04:52:59.906Z,44.03
2018-03-16T04:55:26.139Z,41.17
2018-03-16T04:57:52.229Z,39.03
2018-03-16T05:00:18.327Z,35.50
2018-03-16T05:02:44.493Z,38.80
2018-03-16T05:05:10.562Z,44.57
2018-03-16T05:07:37.311Z,43.33
2018-03-16T05:10:03.429Z,38.07
2018-03-16T05:12:30.245Z,35.20
2018-03-16T05:14:57.181Z,37.67
2018-03-16T05:17:23.485Z,44.60
2018-03-16T05:19:49.594Z,36.00
2018-03-16T05:22:15.714Z,41.73
2018-03-16T05:24:41.901Z,34.10
2018-03-16T05:27:08.009Z,37.70
2018-03-16T05:29:35.819Z,45.10
2018-03-16T05:32:01.909Z,36.70
2018-03-16T05:34:28.514Z,38.07
2018-03-16T05:36:54.583Z,44.80
2018-03-16T05:39:20.695Z,41.50
2018-03-16T05:41:47.318Z,31.90
2018-03-16T05:44:13.361Z,41.27
2018-03-16T05:46:39.646Z,34.23
2018-03-16T05:49:05.830Z,36.20
2018-03-16T05:51:31.860Z,35.07
2018-03-16T05:53:57.960Z,43.37
2018-03-16T05:56:24.275Z,34.43
2018-03-16T05:58:50.468Z,35.80
2018-03-16T06:01:16.629Z,30.70
2018-03-16T06:03:43.210Z,29.87
2018-03-16T06:06:10.112Z,34.93
2018-03-16T06:08:36.167Z,32.97
2018-03-16T06:11:02.370Z,33.27
2018-03-16T06:13:28.438Z,31.47
2018-03-16T06:15:54.620Z,34.30
2018-03-16T06:18:20.698Z,31.53
2018-03-16T06:20:47.567Z,29.33
2018-03-16T06:23:14.838Z,35.13
2018-03-16T06:25:41.651Z,31.60
2018-03-16T06:28:07.747Z,36.40
2018-03-16T06:30:34.805Z,33.93
2018-03-16T06:33:00.915Z,32.60
2018-03-16T06:35:26.995Z,30.50
2018-03-16T06:37:53.077Z,28.40
2018-03-16T06:40:19.195Z,29.00
2018-03-16T06:42:45.298Z,32.73
2018-03-16T06:45:13.103Z,31.70
2018-03-16T06:47:39.315Z,30.57
2018-03-16T06:50:05.510Z,33.30
2018-03-16T06:52:32.389Z,31.27
2018-03-16T06:54:59.239Z,30.80
2018-03-16T06:57:26.785Z,30.90
2018-03-16T06:59:53.483Z,31.97
2018-03-16T07:02:19.871Z,34.30
2018-03-16T07:04:46.051Z,29.80
2018-03-16T07:07:12.263Z,33.07
2018-03-16T07:09:39.174Z,31.33
2018-03-16T07:12:05.595Z,32.70
2018-03-16T07:14:31.639Z,29.40
2018-03-16T07:16:58.398Z,35.77
2018-03-16T07:19:24.600Z,29.60
2018-03-16T07:21:52.574Z,35.37
2018-03-16T07:24:18.812Z,29.67
2018-03-16T07:26:45.804Z,26.57
2018-03-16T07:29:12.027Z,28.40
2018-03-16T07:31:38.256Z,30.30
2018-03-16T07:34:07.616Z,29.80
2018-03-16T07:36:34.650Z,27.70
2018-03-16T07:39:01.183Z,33.30
2018-03-16T07:41:28.128Z,37.60
2018-03-16T07:43:54.976Z,33.53
2018-03-16T07:46:21.203Z,30.80
2018-03-16T07:48:48.568Z,31.50
2018-03-16T07:51:16.492Z,27.63
2018-03-16T07:53:42.630Z,28.60
2018-03-16T07:56:08.859Z,29.33
2018-03-16T07:58:35.061Z,28.27
2018-03-16T08:01:03.142Z,29.57
2018-03-16T08:03:29.391Z,27.87
2018-03-16T08:05:56.307Z,31.60
2018-03-16T08:08:22.790Z,31.80
2018-03-16T08:10:49.515Z,28.20
2018-03-16T08:13:15.693Z,30.97
2018-03-16T08:15:41.851Z,26.00
2018-03-16T08:18:08.810Z,29.00
2018-03-16T08:20:35.479Z,26.53
2018-03-16T08:23:01.607Z,29.60
2018-03-16T08:25:27.818Z,30.30
2018-03-16T08:27:54.687Z,27.40
2018-03-16T08:30:21.207Z,32.37
2018-03-16T08:32:47.371Z,33.37
2018-03-16T08:35:13.555Z,34.27
2018-03-16T08:37:40.392Z,31.70
2018-03-16T08:40:06.884Z,29.10
2018-03-16T08:42:33.184Z,32.60
2018-03-16T08:45:01.130Z,34.60
2018-03-16T08:47:27.280Z,34.70
2018-03-16T08:49:54.135Z,30.70
2018-03-16T08:52:23.508Z,32.33
2018-03-16T08:54:49.606Z,28.93
2018-03-16T08:57:16.691Z,30.03
2018-03-16T08:59:43.529Z,30.90
2018-03-16T09:02:09.966Z,33.27
2018-03-16T09:04:37.278Z,31.77
2018-03-16T09:07:04.165Z,30.23
2018-03-16T09:09:30.233Z,37.53
2018-03-16T09:11:57.006Z,32.20
2018-03-16T09:14:23.265Z,33.03
2018-03-16T09:16:49.447Z,31.60
2018-03-16T09:19:15.948Z,29.97
2018-03-16T09:21:42.432Z,29.73
2018-03-16T09:24:08.739Z,32.67
2018-03-16T09:26:34.845Z,28.70
2018-03-16T09:29:00.975Z,27.23
2018-03-16T09:31:27.234Z,32.63
2018-03-16T09:33:54.669Z,31.07
2018-03-16T09:36:20.881Z,28.80
2018-03-16T09:38:47.901Z,30.07
2018-03-16T09:41:14.864Z,27.70
2018-03-16T09:43:41.014Z,29.50
2018-03-16T09:46:07.963Z,34.47
2018-03-16T09:48:35.523Z,32.43
2018-03-16T09:51:01.593Z,28.90
2018-03-16T09:53:28.765Z,26.53
2018-03-16T09:55:55.096Z,27.87
2018-03-16T09:58:22.016Z,25.77
2018-03-16T10:00:48.394Z,23.63
2018-03-16T10:03:14.792Z,24.43
2018-03-16T10:05:43.484Z,21.63
2018-03-16T10:08:09.728Z,22.67
2018-03-16T10:10:36.125Z,21.97
2018-03-16T10:13:03.066Z,22.40
2018-03-16T10:15:30.476Z,23.43
2018-03-16T10:17:56.544Z,20.90
2018-03-16T10:20:22.637Z,21.43
2018-03-16T10:22:48.910Z,24.77
2018-03-16T10:25:14.967Z,22.90
2018-03-16T10:27:42.280Z,22.47
2018-03-16T10:30:08.346Z,20.97
2018-03-16T10:32:35.048Z,21.70
2018-03-16T10:35:02.060Z,22.90
2018-03-16T10:37:29.321Z,24.10
2018-03-16T10:39:56.776Z,23.10
2018-03-16T10:42:22.935Z,20.10
2018-03-16T10:44:49.271Z,23.33
2018-03-16T10:47:16.735Z,26.13
2018-03-16T10:49:42.902Z,20.30
2018-03-16T10:52:09.049Z,21.00
2018-03-16T10:54:35.160Z,24.50
2018-03-16T10:57:03.292Z,17.23
2018-03-16T10:59:30.180Z,19.80
2018-03-16T11:01:56.677Z,19.10
2018-03-16T11:04:28.633Z,18.03
2018-03-16T11:07:00.741Z,21.70
2018-03-16T11:09:26.959Z,20.43
2018-03-16T11:11:53.121Z,20.93
2018-03-16T11:14:20.332Z,17.50
2018-03-16T11:16:47.828Z,19.70
2018-03-16T11:19:13.988Z,17.60
2018-03-16T11:21:40.597Z,17.27
2018-03-16T11:24:08.334Z,22.77
2018-03-16T11:26:34.438Z,17.43
2018-03-16T11:29:00.973Z,23.00
2018-03-16T11:31:27.463Z,14.83
2018-03-16T11:33:55.640Z,17.23
2018-03-16T11:36:23.573Z,17.43
2018-03-16T11:38:49.884Z,14.03
2018-03-16T11:41:16.406Z,15.93
2018-03-16T11:43:42.446Z,15.87
2018-03-16T11:46:11.053Z,15.73
2018-03-16T11:48:37.169Z,14.63
2018-03-16T11:51:03.631Z,16.13
2018-03-16T11:53:29.761Z,16.73
2018-03-16T11:55:56.617Z,13.50
2018-03-16T11:58:22.776Z,16.33
2018-03-16T12:00:49.107Z,13.13
2018-03-16T12:03:16.524Z,13.57
2018-03-16T12:05:43.459Z,12.90
2018-03-16T12:08:09.723Z,15.50
2018-03-16T12:10:36.904Z,14.53
2018-03-16T12:13:03.166Z,12.20
2018-03-16T12:15:29.628Z,11.20
2018-03-16T12:17:55.769Z,11.90
2018-03-16T12:20:22.693Z,11.63
2018-03-16T12:22:49.747Z,11.93
2018-03-16T12:25:16.952Z,12.43
2018-03-16T12:27:43.057Z,19.23
2018-03-16T12:30:09.242Z,12.77
2018-03-16T12:32:38.637Z,11.47
2018-03-16T12:35:05.955Z,11.77
2018-03-16T12:37:32.165Z,10.13
2018-03-16T12:39:58.311Z,10.33
2018-03-16T12:42:25.155Z,9.43
2018-03-16T12:44:51.321Z,9.93
2018-03-16T12:47:17.669Z,9.73
2018-03-16T12:49:43.760Z,9.20
2018-03-16T12:52:10.446Z,9.83
2018-03-16T12:54:37.305Z,7.80
2018-03-16T12:57:04.111Z,8.23
2018-03-16T12:59:30.209Z,10.03
2018-03-16T13:01:59.083Z,9.20
2018-03-16T13:04:25.875Z,11.80
2018-03-16T13:06:52.071Z,15.07
2018-03-16T13:09:19.581Z,22.90
2018-03-16T13:11:46.159Z,21.90
2018-03-16T13:14:13.581Z,19.50
2018-03-16T13:16:39.796Z,18.63
2018-03-16T13:19:05.925Z,19.73
2018-03-16T13:21:32.149Z,20.67
2018-03-16T13:23:58.976Z,21.17
2018-03-16T13:26:27.683Z,21.53
2018-03-16T13:28:53.902Z,19.13
2018-03-16T13:31:20.187Z,17.27
2018-03-16T13:33:46.477Z,23.00
2018-03-16T13:36:12.524Z,22.73
2018-03-16T13:38:38.878Z,23.73
2018-03-16T13:41:05.798Z,18.43
2018-03-16T13:43:32.672Z,17.43
2018-03-16T13:45:58.996Z,23.00
2018-03-16T13:48:25.869Z,17.07
2018-03-16T13:50:52.239Z,31.03
2018-03-16T13:53:19.135Z,20.70
2018-03-16T13:55:45.294Z,20.40
2018-03-16T13:58:11.472Z,17.07
2018-03-16T14:00:38.522Z,17.93
2018-03-16T14:03:04.648Z,20.03
2018-03-16T14:05:30.874Z,20.93
2018-03-16T14:07:57.872Z,20.97
2018-03-16T14:10:24.153Z,18.27
2018-03-16T14:12:52.033Z,16.00
2018-03-16T14:15:19.327Z,19.00
2018-03-16T14:17:45.612Z,19.90
2018-03-16T14:20:12.455Z,19.90
2018-03-16T14:22:38.519Z,20.80
2018-03-16T14:25:05.518Z,21.20
2018-03-16T14:27:31.690Z,15.70
2018-03-16T14:29:57.921Z,13.57
2018-03-16T14:32:24.046Z,16.40
2018-03-16T14:34:50.124Z,15.87
2018-03-16T14:37:17.297Z,14.30
2018-03-16T14:39:44.335Z,19.03
2018-03-16T14:42:11.954Z,17.20
2018-03-16T14:44:38.189Z,17.50
2018-03-16T14:47:04.401Z,18.00
2018-03-16T14:49:31.882Z,19.00
2018-03-16T14:51:58.954Z,15.57
2018-03-16T14:54:26.016Z,14.77
2018-03-16T14:56:52.684Z,21.30
2018-03-16T14:59:19.009Z,16.30
2018-03-16T15:01:46.605Z,14.37
2018-03-16T15:04:13.334Z,16.23
2018-03-16T15:06:39.615Z,14.70
2018-03-16T15:09:05.861Z,17.90
2018-03-16T15:11:32.801Z,19.87
2018-03-16T15:13:59.399Z,16.00
2018-03-16T15:16:25.698Z,16.80
2018-03-16T15:18:52.230Z,32.50
2018-03-16T15:21:19.240Z,19.20
2018-03-16T15:23:46.430Z,16.13
2018-03-16T15:26:12.628Z,17.10
2018-03-16T15:28:38.866Z,14.40
2018-03-16T15:31:05.063Z,19.83
2018-03-16T15:33:31.544Z,18.00
2018-03-16T15:35:57.794Z,21.90
2018-03-16T15:38:25.398Z,16.03
2018-03-16T15:40:51.553Z,19.53
2018-03-16T15:43:18.280Z,19.57
2018-03-16T15:45:45.194Z,21.47
2018-03-16T15:48:12.200Z,25.00
2018-03-16T15:50:38.354Z,19.17
2018-03-16T15:53:04.739Z,24.67
2018-03-16T15:55:31.873Z,24.57
2018-03-16T15:57:58.870Z,22.40
2018-03-16T16:00:25.144Z,22.87
2018-03-16T16:02:51.272Z,23.40
2018-03-16T16:05:17.541Z,23.23
2018-03-16T16:07:45.072Z,25.23
2018-03-16T16:10:11.347Z,22.60
2018-03-16T16:12:37.633Z,24.13
2018-03-16T16:15:04.023Z,21.43
2018-03-16T16:17:31.165Z,26.90
2018-03-16T16:20:00.368Z,20.40
2018-03-16T16:22:30.367Z,23.13
2018-03-16T16:24:56.702Z,23.80
2018-03-16T16:27:22.899Z,24.53
2018-03-16T16:29:50.876Z,23.37
2018-03-16T16:32:17.179Z,18.50
2018-03-16T16:34:43.799Z,23.20
2018-03-16T16:37:11.010Z,21.37
2018-03-16T16:39:37.166Z,20.00
2018-03-16T16:42:03.767Z,31.47
2018-03-16T16:44:29.949Z,18.20
2018-03-16T16:46:57.216Z,35.20
2018-03-16T16:49:23.480Z,20.50
2018-03-16T16:51:50.438Z,18.77
2018-03-16T16:54:17.490Z,20.07
2018-03-16T16:56:44.695Z,28.67
2018-03-16T16:59:10.821Z,18.23
2018-03-16T17:01:39.636Z,25.00
2018-03-16T17:04:06.757Z,24.20
2018-03-16T17:06:33.041Z,20.13
2018-03-16T17:08:59.912Z,20.23
2018-03-16T17:11:26.066Z,18.27
2018-03-16T17:13:52.602Z,22.23
2018-03-16T17:16:19.846Z,20.67
2018-03-16T17:18:47.063Z,28.63
2018-03-16T17:21:13.298Z,20.97
2018-03-16T17:23:39.739Z,18.83
2018-03-16T17:26:05.968Z,18.27
2018-03-16T17:28:32.237Z,17.60
2018-03-16T17:30:58.739Z,19.50
2018-03-16T17:33:24.890Z,17.70
2018-03-16T17:35:52.326Z,16.87
2018-03-16T17:38:18.535Z,20.80
2018-03-16T17:40:44.672Z,23.60
2018-03-16T17:43:10.856Z,18.97
2018-03-16T17:45:37.194Z,20.63
2018-03-16T17:48:03.972Z,21.20
2018-03-16T17:50:30.042Z,16.00
2018-03-16T17:52:56.977Z,11.57
2018-03-16T17:55:23.194Z,11.50
2018-03-16T17:57:49.885Z,12.90
2018-03-16T18:00:17.731Z,14.40
2018-03-16T18:02:43.849Z,11.60
2018-03-16T18:05:10.575Z,13.37
2018-03-16T18:07:37.516Z,11.80
2018-03-16T18:10:04.221Z,14.57
2018-03-16T18:12:30.376Z,12.67
2018-03-16T18:14:57.388Z,18.23
2018-03-16T18:17:24.698Z,13.00
2018-03-16T18:19:51.216Z,12.60
2018-03-16T18:22:17.645Z,12.90
2018-03-16T18:24:44.551Z,13.40
2018-03-16T18:27:10.608Z,11.20
2018-03-16T18:29:37.671Z,16.40
2018-03-16T18:32:03.786Z,11.47
2018-03-16T18:34:30.739Z,9.50
2018-03-16T18:36:57.462Z,11.43
2018-03-16T18:39:24.455Z,9.30
2018-03-16T18:41:51.610Z,8.50
2018-03-16T18:44:17.930Z,11.10
2018-03-16T18:46:44.016Z,10.77
2018-03-16T18:49:10.103Z,10.47
2018-03-16T18:51:37.555Z,12.37
2018-03-16T18:54:04.450Z,10.80
2018-03-16T18:56:30.576Z,10.80
2018-03-16T18:58:56.671Z,10.17
2018-03-16T19:01:23.522Z,11.40
2018-03-16T19:03:49.645Z,12.07
2018-03-16T19:06:16.622Z,11.13
2018-03-16T19:08:43.451Z,12.30
2018-03-16T19:11:10.354Z,11.10
2018-03-16T19:13:36.537Z,12.40
2018-03-16T19:16:03.418Z,11.20
2018-03-16T19:18:29.469Z,11.90
2018-03-16T19:20:55.629Z,10.27
2018-03-16T19:23:22.630Z,11.70
2018-03-16T19:25:49.099Z,12.60
2018-03-16T19:28:15.163Z,12.50
2018-03-16T19:30:41.246Z,14.33
2018-03-16T19:33:07.342Z,12.93
2018-03-16T19:35:33.489Z,13.77
2018-03-16T19:38:00.546Z,16.00
2018-03-16T19:40:26.742Z,12.03
2018-03-16T19:42:55.085Z,14.10
2018-03-16T19:45:28.016Z,14.60
2018-03-16T19:47:54.120Z,16.80
2018-03-16T19:50:21.643Z,13.70
2018-03-16T19:52:47.834Z,13.30
2018-03-16T19:55:14.105Z,13.00
2018-03-16T19:57:40.583Z,13.88
2018-03-16T20:00:06.660Z,12.73
2018-03-16T20:02:34.872Z,15.97
2018-03-16T20:05:01.050Z,12.80
2018-03-16T20:07:27.195Z,13.30
2018-03-16T20:09:53.472Z,14.13
2018-03-16T20:12:19.569Z,14.33
2018-03-16T20:14:45.790Z,14.17
2018-03-16T20:17:12.221Z,17.17
2018-03-16T20:19:43.947Z,14.82
2018-03-16T20:22:10.286Z,15.60
2018-03-16T20:24:38.611Z,16.50
2018-03-16T20:27:05.404Z,16.45
2018-03-16T20:29:31.607Z,18.27
2018-03-16T20:31:57.692Z,16.55
2018-03-16T20:34:24.134Z,16.05
2018-03-16T20:36:50.280Z,15.95
2018-03-16T20:39:17.475Z,19.30
2018-03-16T20:41:43.534Z,19.37
2018-03-16T20:44:10.515Z,18.35
2018-03-16T20:46:36.704Z,18.58
2018-03-16T20:49:04.052Z,22.00
2018-03-16T20:51:30.241Z,19.87
2018-03-16T20:53:57.646Z,23.40
2018-03-16T20:56:23.833Z,21.75
2018-03-16T20:58:50.069Z,22.37
2018-03-16T21:01:16.290Z,21.60
2018-03-16T21:03:43.268Z,22.48
2018-03-16T21:06:09.430Z,20.77
2018-03-16T21:08:35.613Z,23.05
2018-03-16T21:11:01.716Z,23.85
2018-03-16T21:13:27.860Z,24.00
2018-03-16T21:15:53.909Z,24.92
2018-03-16T21:18:21.030Z,25.55
2018-03-16T21:20:47.249Z,23.80
2018-03-16T21:23:13.363Z,25.65
2018-03-16T21:25:39.437Z,26.58
2018-03-16T21:28:08.538Z,24.73
2018-03-16T21:30:36.565Z,24.10
2018-03-16T21:33:02.948Z,25.00
2018-03-16T21:35:30.957Z,24.40
2018-03-16T21:37:57.105Z,29.67
2018-03-16T21:40:23.216Z,25.40
2018-03-16T21:42:56.868Z,26.70
2018-03-16T21:45:24.514Z,26.33
2018-03-16T21:47:50.928Z,28.02
2018-03-16T21:50:17.208Z,29.08
2018-03-16T21:52:43.368Z,24.52
2018-03-16T21:55:13.972Z,28.80
2018-03-16T21:57:40.115Z,26.85
2018-03-16T22:00:06.936Z,29.05
2018-03-16T22:02:33.030Z,29.12
2018-03-16T22:05:01.422Z,28.52
2018-03-16T22:07:27.517Z,28.67
2018-03-16T22:09:53.625Z,29.27
2018-03-16T22:12:19.846Z,28.62
2018-03-16T22:14:46.089Z,31.12
2018-03-16T22:17:12.213Z,31.33
2018-03-16T22:19:39.904Z,31.83
2018-03-16T22:22:06.003Z,32.97
2018-03-16T22:24:32.782Z,31.85
2018-03-16T22:26:58.922Z,32.30
2018-03-16T22:29:25.022Z,32.70
2018-03-16T22:31:53.036Z,33.35
2018-03-16T22:34:19.176Z,32.15
2018-03-16T22:36:45.304Z,31.60
2018-03-16T22:39:11.429Z,35.10
2018-03-16T22:41:38.427Z,31.17
2018-03-16T22:44:05.274Z,33.38
2018-03-16T22:46:33.829Z,32.55
2018-03-16T22:49:01.645Z,32.92
2018-03-16T22:51:27.794Z,31.08
2018-03-16T22:53:53.966Z,31.15
2018-03-16T22:56:20.224Z,32.83
2018-03-16T22:58:47.051Z,31.25
2018-03-16T23:01:13.198Z,30.60
2018-03-16T23:03:40.445Z,29.33
2018-03-16T23:06:06.569Z,31.65
2018-03-16T23:08:32.711Z,35.03
2018-03-16T23:10:59.751Z,32.25
2018-03-16T23:13:26.663Z,36.28
2018-03-16T23:15:53.253Z,32.80
2018-03-16T23:18:19.440Z,33.55
2018-03-16T23:20:46.026Z,27.87
2018-03-16T23:23:12.459Z,34.50
2018-03-16T23:25:38.736Z,30.05
2018-03-16T23:28:05.037Z,28.35
2018-03-16T23:30:32.554Z,30.75
2018-03-16T23:32:58.603Z,33.08
2018-03-16T23:35:24.657Z,27.20
2018-03-16T23:37:50.718Z,31.20
2018-03-16T23:40:17.709Z,29.63
2018-03-16T23:42:43.900Z,32.78
2018-03-16T23:45:10.728Z,31.37
2018-03-16T23:47:36.860Z,26.67
2018-03-16T23:50:03.136Z,28.98
2018-03-16T23:52:29.216Z,29.30
2018-03-16T23:54:56.263Z,30.23
2018-03-16T23:57:22.429Z,29.87
2018-03-16T23:59:49.319Z,27.67
